<?xml version="1.0" encoding="UTF-8" standalone="no" ?>
<gpx xmlns="http://www.topografix.com/GPX/1/1" creator="MapSource 6.11.6" version="1.1" xmlns:xsi="http://www.w3.org/2001/XMLSchema-instance" xsi:schemaLocation="http://www.topografix.com/GPX/1/1 http://www.topografix.com/GPX/1/1/gpx.xsd">

  <metadata>
    <link href="http://www.garmin.com">
      <text>Garmin International</text>
    </link>
    <time>2009-08-25T14:41:54Z</time>
    <bounds maxlat="50.734306" maxlon="6.541020" minlat="50.721548" minlon="6.522006"/>
  </metadata>

  <trk>
    <name>Neuntöterweg</name>
    <extensions>
      <gpxx:TrackExtension xmlns:gpxx="http://www.garmin.com/xmlschemas/GpxExtensions/v3" xmlns:xsi="http://www.w3.org/2001/XMLSchema-instance" xsi:schemaLocation="http://www.garmin.com/xmlschemas/GpxExtensions/v3 http://www.garmin.com/xmlschemas/GpxExtensions/v3/GpxExtensionsv3.xsd">
        <gpxx:DisplayColor>Yellow</gpxx:DisplayColor>
      </gpxx:TrackExtension>
    </extensions>
    <trkseg>
      <trkpt lat="50.734306" lon="6.541020">
        <ele>274.110000</ele>
        <time>2009-08-23T08:26:43Z</time>
      </trkpt>
      <trkpt lat="50.734263" lon="6.541010">
        <ele>273.630000</ele>
        <time>2009-08-23T08:27:00Z</time>
      </trkpt>
      <trkpt lat="50.734269" lon="6.540793">
        <ele>272.670000</ele>
        <time>2009-08-23T08:27:15Z</time>
      </trkpt>
      <trkpt lat="50.734253" lon="6.540780">
        <ele>271.710000</ele>
        <time>2009-08-23T08:27:26Z</time>
      </trkpt>
      <trkpt lat="50.734222" lon="6.540683">
        <ele>270.750000</ele>
        <time>2009-08-23T08:27:43Z</time>
      </trkpt>
      <trkpt lat="50.734219" lon="6.540683">
        <ele>270.750000</ele>
        <time>2009-08-23T08:27:58Z</time>
      </trkpt>
      <trkpt lat="50.734231" lon="6.540690">
        <ele>269.310000</ele>
        <time>2009-08-23T08:28:29Z</time>
      </trkpt>
      <trkpt lat="50.734159" lon="6.540621">
        <ele>268.830000</ele>
        <time>2009-08-23T08:28:45Z</time>
      </trkpt>
      <trkpt lat="50.734062" lon="6.540397">
        <ele>268.350000</ele>
        <time>2009-08-23T08:28:57Z</time>
      </trkpt>
      <trkpt lat="50.734016" lon="6.540290">
        <ele>268.350000</ele>
        <time>2009-08-23T08:29:03Z</time>
      </trkpt>
      <trkpt lat="50.733985" lon="6.540232">
        <ele>268.350000</ele>
        <time>2009-08-23T08:29:07Z</time>
      </trkpt>
      <trkpt lat="50.733889" lon="6.539985">
        <ele>267.380000</ele>
        <time>2009-08-23T08:29:21Z</time>
      </trkpt>
      <trkpt lat="50.733762" lon="6.539708">
        <ele>267.380000</ele>
        <time>2009-08-23T08:29:34Z</time>
      </trkpt>
      <trkpt lat="50.733678" lon="6.539429">
        <ele>266.420000</ele>
        <time>2009-08-23T08:29:50Z</time>
      </trkpt>
      <trkpt lat="50.733589" lon="6.539212">
        <ele>265.940000</ele>
        <time>2009-08-23T08:30:02Z</time>
      </trkpt>
      <trkpt lat="50.733506" lon="6.538877">
        <ele>265.460000</ele>
        <time>2009-08-23T08:30:18Z</time>
      </trkpt>
      <trkpt lat="50.733524" lon="6.538837">
        <ele>265.940000</ele>
        <time>2009-08-23T08:30:21Z</time>
      </trkpt>
      <trkpt lat="50.733521" lon="6.538881">
        <ele>264.500000</ele>
        <time>2009-08-23T08:30:44Z</time>
      </trkpt>
      <trkpt lat="50.733505" lon="6.538818">
        <ele>264.980000</ele>
        <time>2009-08-23T08:30:48Z</time>
      </trkpt>
      <trkpt lat="50.733410" lon="6.538573">
        <ele>264.500000</ele>
        <time>2009-08-23T08:31:02Z</time>
      </trkpt>
      <trkpt lat="50.733253" lon="6.538361">
        <ele>264.020000</ele>
        <time>2009-08-23T08:31:16Z</time>
      </trkpt>
      <trkpt lat="50.733131" lon="6.538102">
        <ele>263.540000</ele>
        <time>2009-08-23T08:31:30Z</time>
      </trkpt>
      <trkpt lat="50.733064" lon="6.537826">
        <ele>263.060000</ele>
        <time>2009-08-23T08:31:45Z</time>
      </trkpt>
      <trkpt lat="50.733080" lon="6.537812">
        <ele>263.060000</ele>
        <time>2009-08-23T08:31:48Z</time>
      </trkpt>
      <trkpt lat="50.733075" lon="6.537775">
        <ele>261.620000</ele>
        <time>2009-08-23T08:32:40Z</time>
      </trkpt>
      <trkpt lat="50.732993" lon="6.537639">
        <ele>261.140000</ele>
        <time>2009-08-23T08:32:51Z</time>
      </trkpt>
      <trkpt lat="50.732867" lon="6.537364">
        <ele>261.140000</ele>
        <time>2009-08-23T08:33:07Z</time>
      </trkpt>
      <trkpt lat="50.732735" lon="6.537051">
        <ele>260.650000</ele>
        <time>2009-08-23T08:33:24Z</time>
      </trkpt>
      <trkpt lat="50.732656" lon="6.536827">
        <ele>260.650000</ele>
        <time>2009-08-23T08:33:36Z</time>
      </trkpt>
      <trkpt lat="50.732567" lon="6.536612">
        <ele>260.650000</ele>
        <time>2009-08-23T08:33:49Z</time>
      </trkpt>
      <trkpt lat="50.732459" lon="6.536349">
        <ele>260.170000</ele>
        <time>2009-08-23T08:34:04Z</time>
      </trkpt>
      <trkpt lat="50.732391" lon="6.536134">
        <ele>260.650000</ele>
        <time>2009-08-23T08:34:15Z</time>
      </trkpt>
      <trkpt lat="50.732312" lon="6.535886">
        <ele>260.170000</ele>
        <time>2009-08-23T08:34:30Z</time>
      </trkpt>
      <trkpt lat="50.732213" lon="6.535697">
        <ele>260.170000</ele>
        <time>2009-08-23T08:34:42Z</time>
      </trkpt>
      <trkpt lat="50.732188" lon="6.535635">
        <ele>260.170000</ele>
        <time>2009-08-23T08:34:46Z</time>
      </trkpt>
      <trkpt lat="50.732046" lon="6.535265">
        <ele>260.170000</ele>
        <time>2009-08-23T08:35:04Z</time>
      </trkpt>
      <trkpt lat="50.732023" lon="6.535194">
        <ele>260.170000</ele>
        <time>2009-08-23T08:35:08Z</time>
      </trkpt>
      <trkpt lat="50.731915" lon="6.534870">
        <ele>259.690000</ele>
        <time>2009-08-23T08:35:24Z</time>
      </trkpt>
      <trkpt lat="50.731867" lon="6.534714">
        <ele>259.690000</ele>
        <time>2009-08-23T08:35:33Z</time>
      </trkpt>
      <trkpt lat="50.731818" lon="6.534462">
        <ele>259.210000</ele>
        <time>2009-08-23T08:35:46Z</time>
      </trkpt>
      <trkpt lat="50.731821" lon="6.534153">
        <ele>259.210000</ele>
        <time>2009-08-23T08:35:59Z</time>
      </trkpt>
      <trkpt lat="50.731821" lon="6.533838">
        <ele>258.730000</ele>
        <time>2009-08-23T08:36:15Z</time>
      </trkpt>
      <trkpt lat="50.731856" lon="6.533525">
        <ele>258.730000</ele>
        <time>2009-08-23T08:36:29Z</time>
      </trkpt>
      <trkpt lat="50.731860" lon="6.533455">
        <ele>258.730000</ele>
        <time>2009-08-23T08:36:32Z</time>
      </trkpt>
      <trkpt lat="50.731810" lon="6.533134">
        <ele>258.250000</ele>
        <time>2009-08-23T08:36:49Z</time>
      </trkpt>
      <trkpt lat="50.731823" lon="6.532733">
        <ele>257.770000</ele>
        <time>2009-08-23T08:37:06Z</time>
      </trkpt>
      <trkpt lat="50.731803" lon="6.532401">
        <ele>257.290000</ele>
        <time>2009-08-23T08:37:22Z</time>
      </trkpt>
      <trkpt lat="50.731806" lon="6.532382">
        <ele>257.290000</ele>
        <time>2009-08-23T08:37:23Z</time>
      </trkpt>
      <trkpt lat="50.731794" lon="6.532262">
        <ele>257.290000</ele>
        <time>2009-08-23T08:37:28Z</time>
      </trkpt>
      <trkpt lat="50.731826" lon="6.531895">
        <ele>256.810000</ele>
        <time>2009-08-23T08:37:44Z</time>
      </trkpt>
      <trkpt lat="50.731820" lon="6.531521">
        <ele>256.810000</ele>
        <time>2009-08-23T08:38:01Z</time>
      </trkpt>
      <trkpt lat="50.731805" lon="6.531203">
        <ele>256.330000</ele>
        <time>2009-08-23T08:38:17Z</time>
      </trkpt>
      <trkpt lat="50.731776" lon="6.530869">
        <ele>256.330000</ele>
        <time>2009-08-23T08:38:32Z</time>
      </trkpt>
      <trkpt lat="50.731765" lon="6.530552">
        <ele>256.330000</ele>
        <time>2009-08-23T08:38:47Z</time>
      </trkpt>
      <trkpt lat="50.731710" lon="6.530196">
        <ele>255.850000</ele>
        <time>2009-08-23T08:39:04Z</time>
      </trkpt>
      <trkpt lat="50.731666" lon="6.530147">
        <ele>255.850000</ele>
        <time>2009-08-23T08:39:20Z</time>
      </trkpt>
      <trkpt lat="50.731691" lon="6.530166">
        <ele>254.410000</ele>
        <time>2009-08-23T08:40:05Z</time>
      </trkpt>
      <trkpt lat="50.731728" lon="6.530124">
        <ele>254.410000</ele>
        <time>2009-08-23T08:40:10Z</time>
      </trkpt>
      <trkpt lat="50.731730" lon="6.529798">
        <ele>254.410000</ele>
        <time>2009-08-23T08:40:26Z</time>
      </trkpt>
      <trkpt lat="50.731711" lon="6.529592">
        <ele>253.930000</ele>
        <time>2009-08-23T08:40:35Z</time>
      </trkpt>
      <trkpt lat="50.731723" lon="6.529435">
        <ele>253.930000</ele>
        <time>2009-08-23T08:40:43Z</time>
      </trkpt>
      <trkpt lat="50.731681" lon="6.529383">
        <ele>253.440000</ele>
        <time>2009-08-23T08:40:57Z</time>
      </trkpt>
      <trkpt lat="50.731678" lon="6.529337">
        <ele>252.480000</ele>
        <time>2009-08-23T08:41:52Z</time>
      </trkpt>
      <trkpt lat="50.731684" lon="6.529187">
        <ele>252.480000</ele>
        <time>2009-08-23T08:42:10Z</time>
      </trkpt>
      <trkpt lat="50.731698" lon="6.529147">
        <ele>252.000000</ele>
        <time>2009-08-23T08:42:18Z</time>
      </trkpt>
      <trkpt lat="50.731693" lon="6.529099">
        <ele>252.000000</ele>
        <time>2009-08-23T08:42:20Z</time>
      </trkpt>
      <trkpt lat="50.731697" lon="6.528971">
        <ele>252.000000</ele>
        <time>2009-08-23T08:42:27Z</time>
      </trkpt>
      <trkpt lat="50.731698" lon="6.528643">
        <ele>251.520000</ele>
        <time>2009-08-23T08:42:44Z</time>
      </trkpt>
      <trkpt lat="50.731706" lon="6.528490">
        <ele>251.520000</ele>
        <time>2009-08-23T08:42:50Z</time>
      </trkpt>
      <trkpt lat="50.731711" lon="6.528172">
        <ele>251.520000</ele>
        <time>2009-08-23T08:43:05Z</time>
      </trkpt>
      <trkpt lat="50.731708" lon="6.527896">
        <ele>251.520000</ele>
        <time>2009-08-23T08:43:19Z</time>
      </trkpt>
      <trkpt lat="50.731698" lon="6.527612">
        <ele>251.040000</ele>
        <time>2009-08-23T08:43:32Z</time>
      </trkpt>
      <trkpt lat="50.731697" lon="6.527260">
        <ele>251.040000</ele>
        <time>2009-08-23T08:43:49Z</time>
      </trkpt>
      <trkpt lat="50.731694" lon="6.526964">
        <ele>251.040000</ele>
        <time>2009-08-23T08:44:03Z</time>
      </trkpt>
      <trkpt lat="50.731692" lon="6.526937">
        <ele>251.040000</ele>
        <time>2009-08-23T08:44:05Z</time>
      </trkpt>
      <trkpt lat="50.731673" lon="6.526560">
        <ele>250.560000</ele>
        <time>2009-08-23T08:44:21Z</time>
      </trkpt>
      <trkpt lat="50.731660" lon="6.526250">
        <ele>250.560000</ele>
        <time>2009-08-23T08:44:37Z</time>
      </trkpt>
      <trkpt lat="50.731646" lon="6.525923">
        <ele>250.560000</ele>
        <time>2009-08-23T08:44:53Z</time>
      </trkpt>
      <trkpt lat="50.731641" lon="6.525641">
        <ele>250.560000</ele>
        <time>2009-08-23T08:45:08Z</time>
      </trkpt>
      <trkpt lat="50.731654" lon="6.525458">
        <ele>250.080000</ele>
        <time>2009-08-23T08:45:22Z</time>
      </trkpt>
      <trkpt lat="50.731629" lon="6.525184">
        <ele>250.560000</ele>
        <time>2009-08-23T08:45:35Z</time>
      </trkpt>
      <trkpt lat="50.731623" lon="6.525172">
        <ele>250.560000</ele>
        <time>2009-08-23T08:45:36Z</time>
      </trkpt>
      <trkpt lat="50.731546" lon="6.525163">
        <ele>250.080000</ele>
        <time>2009-08-23T08:45:42Z</time>
      </trkpt>
      <trkpt lat="50.731473" lon="6.525197">
        <ele>250.080000</ele>
        <time>2009-08-23T08:45:57Z</time>
      </trkpt>
      <trkpt lat="50.731467" lon="6.525237">
        <ele>249.600000</ele>
        <time>2009-08-23T08:46:37Z</time>
      </trkpt>
      <trkpt lat="50.731312" lon="6.525275">
        <ele>248.640000</ele>
        <time>2009-08-23T08:46:49Z</time>
      </trkpt>
      <trkpt lat="50.731113" lon="6.525341">
        <ele>248.160000</ele>
        <time>2009-08-23T08:47:04Z</time>
      </trkpt>
      <trkpt lat="50.730932" lon="6.525451">
        <ele>247.680000</ele>
        <time>2009-08-23T08:47:18Z</time>
      </trkpt>
      <trkpt lat="50.730732" lon="6.525463">
        <ele>247.200000</ele>
        <time>2009-08-23T08:47:33Z</time>
      </trkpt>
      <trkpt lat="50.730549" lon="6.525376">
        <ele>247.200000</ele>
        <time>2009-08-23T08:47:48Z</time>
      </trkpt>
      <trkpt lat="50.730369" lon="6.525537">
        <ele>246.720000</ele>
        <time>2009-08-23T08:48:02Z</time>
      </trkpt>
      <trkpt lat="50.730343" lon="6.525558">
        <ele>246.720000</ele>
        <time>2009-08-23T08:48:04Z</time>
      </trkpt>
      <trkpt lat="50.730142" lon="6.525716">
        <ele>246.230000</ele>
        <time>2009-08-23T08:48:21Z</time>
      </trkpt>
      <trkpt lat="50.730079" lon="6.525754">
        <ele>246.230000</ele>
        <time>2009-08-23T08:48:27Z</time>
      </trkpt>
      <trkpt lat="50.730060" lon="6.525731">
        <ele>246.230000</ele>
        <time>2009-08-23T08:48:29Z</time>
      </trkpt>
      <trkpt lat="50.730048" lon="6.525744">
        <ele>240.950000</ele>
        <time>2009-08-23T08:53:33Z</time>
      </trkpt>
      <trkpt lat="50.730036" lon="6.525768">
        <ele>240.470000</ele>
        <time>2009-08-23T08:55:10Z</time>
      </trkpt>
      <trkpt lat="50.729902" lon="6.525905">
        <ele>239.990000</ele>
        <time>2009-08-23T08:55:25Z</time>
      </trkpt>
      <trkpt lat="50.729890" lon="6.525909">
        <ele>239.990000</ele>
        <time>2009-08-23T08:55:26Z</time>
      </trkpt>
      <trkpt lat="50.729755" lon="6.526004">
        <ele>239.990000</ele>
        <time>2009-08-23T08:55:42Z</time>
      </trkpt>
      <trkpt lat="50.729715" lon="6.526025">
        <ele>239.990000</ele>
        <time>2009-08-23T08:55:45Z</time>
      </trkpt>
      <trkpt lat="50.729566" lon="6.526039">
        <ele>239.510000</ele>
        <time>2009-08-23T08:55:56Z</time>
      </trkpt>
      <trkpt lat="50.729473" lon="6.526045">
        <ele>239.510000</ele>
        <time>2009-08-23T08:56:03Z</time>
      </trkpt>
      <trkpt lat="50.729312" lon="6.526075">
        <ele>239.020000</ele>
        <time>2009-08-23T08:56:17Z</time>
      </trkpt>
      <trkpt lat="50.729134" lon="6.526122">
        <ele>239.020000</ele>
        <time>2009-08-23T08:56:30Z</time>
      </trkpt>
      <trkpt lat="50.728978" lon="6.526140">
        <ele>239.020000</ele>
        <time>2009-08-23T08:56:41Z</time>
      </trkpt>
      <trkpt lat="50.728883" lon="6.526197">
        <ele>239.020000</ele>
        <time>2009-08-23T08:56:55Z</time>
      </trkpt>
      <trkpt lat="50.728707" lon="6.526287">
        <ele>238.540000</ele>
        <time>2009-08-23T08:57:12Z</time>
      </trkpt>
      <trkpt lat="50.728582" lon="6.526386">
        <ele>239.020000</ele>
        <time>2009-08-23T08:57:28Z</time>
      </trkpt>
      <trkpt lat="50.728498" lon="6.526426">
        <ele>239.020000</ele>
        <time>2009-08-23T08:57:43Z</time>
      </trkpt>
      <trkpt lat="50.728481" lon="6.526437">
        <ele>239.020000</ele>
        <time>2009-08-23T08:57:45Z</time>
      </trkpt>
      <trkpt lat="50.728379" lon="6.526598">
        <ele>239.020000</ele>
        <time>2009-08-23T08:58:00Z</time>
      </trkpt>
      <trkpt lat="50.728317" lon="6.526633">
        <ele>239.020000</ele>
        <time>2009-08-23T08:58:13Z</time>
      </trkpt>
      <trkpt lat="50.728301" lon="6.526663">
        <ele>239.510000</ele>
        <time>2009-08-23T08:58:16Z</time>
      </trkpt>
      <trkpt lat="50.728191" lon="6.526717">
        <ele>239.020000</ele>
        <time>2009-08-23T08:58:25Z</time>
      </trkpt>
      <trkpt lat="50.728111" lon="6.526769">
        <ele>239.020000</ele>
        <time>2009-08-23T08:58:32Z</time>
      </trkpt>
      <trkpt lat="50.728018" lon="6.526940">
        <ele>238.540000</ele>
        <time>2009-08-23T08:58:46Z</time>
      </trkpt>
      <trkpt lat="50.727968" lon="6.526969">
        <ele>239.020000</ele>
        <time>2009-08-23T08:58:50Z</time>
      </trkpt>
      <trkpt lat="50.727818" lon="6.527042">
        <ele>238.540000</ele>
        <time>2009-08-23T08:59:04Z</time>
      </trkpt>
      <trkpt lat="50.727691" lon="6.527080">
        <ele>238.060000</ele>
        <time>2009-08-23T08:59:20Z</time>
      </trkpt>
      <trkpt lat="50.727441" lon="6.527094">
        <ele>238.060000</ele>
        <time>2009-08-23T08:59:40Z</time>
      </trkpt>
      <trkpt lat="50.727329" lon="6.527134">
        <ele>238.060000</ele>
        <time>2009-08-23T08:59:55Z</time>
      </trkpt>
      <trkpt lat="50.727192" lon="6.527191">
        <ele>237.580000</ele>
        <time>2009-08-23T09:00:07Z</time>
      </trkpt>
      <trkpt lat="50.727159" lon="6.527197">
        <ele>237.580000</ele>
        <time>2009-08-23T09:00:22Z</time>
      </trkpt>
      <trkpt lat="50.726966" lon="6.527293">
        <ele>237.100000</ele>
        <time>2009-08-23T09:01:12Z</time>
      </trkpt>
      <trkpt lat="50.726881" lon="6.527363">
        <ele>237.100000</ele>
        <time>2009-08-23T09:01:21Z</time>
      </trkpt>
      <trkpt lat="50.726852" lon="6.527393">
        <ele>237.100000</ele>
        <time>2009-08-23T09:01:25Z</time>
      </trkpt>
      <trkpt lat="50.726780" lon="6.527503">
        <ele>237.100000</ele>
        <time>2009-08-23T09:01:40Z</time>
      </trkpt>
      <trkpt lat="50.726754" lon="6.527560">
        <ele>236.620000</ele>
        <time>2009-08-23T09:01:45Z</time>
      </trkpt>
      <trkpt lat="50.726704" lon="6.527671">
        <ele>236.620000</ele>
        <time>2009-08-23T09:02:01Z</time>
      </trkpt>
      <trkpt lat="50.726620" lon="6.527746">
        <ele>236.620000</ele>
        <time>2009-08-23T09:02:07Z</time>
      </trkpt>
      <trkpt lat="50.726458" lon="6.527921">
        <ele>236.620000</ele>
        <time>2009-08-23T09:02:23Z</time>
      </trkpt>
      <trkpt lat="50.726453" lon="6.527896">
        <ele>235.660000</ele>
        <time>2009-08-23T09:02:36Z</time>
      </trkpt>
      <trkpt lat="50.726416" lon="6.527978">
        <ele>235.660000</ele>
        <time>2009-08-23T09:03:10Z</time>
      </trkpt>
      <trkpt lat="50.726392" lon="6.527991">
        <ele>235.660000</ele>
        <time>2009-08-23T09:03:36Z</time>
      </trkpt>
      <trkpt lat="50.726330" lon="6.527989">
        <ele>235.180000</ele>
        <time>2009-08-23T09:04:00Z</time>
      </trkpt>
      <trkpt lat="50.726264" lon="6.528022">
        <ele>234.700000</ele>
        <time>2009-08-23T09:04:28Z</time>
      </trkpt>
      <trkpt lat="50.726196" lon="6.528051">
        <ele>234.700000</ele>
        <time>2009-08-23T09:04:53Z</time>
      </trkpt>
      <trkpt lat="50.726122" lon="6.528111">
        <ele>234.700000</ele>
        <time>2009-08-23T09:05:27Z</time>
      </trkpt>
      <trkpt lat="50.726092" lon="6.528102">
        <ele>234.220000</ele>
        <time>2009-08-23T09:05:42Z</time>
      </trkpt>
      <trkpt lat="50.726062" lon="6.528127">
        <ele>234.220000</ele>
        <time>2009-08-23T09:06:21Z</time>
      </trkpt>
      <trkpt lat="50.725986" lon="6.528159">
        <ele>234.220000</ele>
        <time>2009-08-23T09:06:40Z</time>
      </trkpt>
      <trkpt lat="50.725843" lon="6.528240">
        <ele>234.220000</ele>
        <time>2009-08-23T09:07:06Z</time>
      </trkpt>
      <trkpt lat="50.725837" lon="6.528218">
        <ele>234.220000</ele>
        <time>2009-08-23T09:07:10Z</time>
      </trkpt>
      <trkpt lat="50.725701" lon="6.528251">
        <ele>234.220000</ele>
        <time>2009-08-23T09:07:22Z</time>
      </trkpt>
      <trkpt lat="50.725683" lon="6.528253">
        <ele>234.220000</ele>
        <time>2009-08-23T09:07:25Z</time>
      </trkpt>
      <trkpt lat="50.725531" lon="6.528427">
        <ele>234.220000</ele>
        <time>2009-08-23T09:07:42Z</time>
      </trkpt>
      <trkpt lat="50.725382" lon="6.528549">
        <ele>235.180000</ele>
        <time>2009-08-23T09:07:58Z</time>
      </trkpt>
      <trkpt lat="50.725235" lon="6.528686">
        <ele>235.660000</ele>
        <time>2009-08-23T09:08:14Z</time>
      </trkpt>
      <trkpt lat="50.725217" lon="6.528692">
        <ele>235.660000</ele>
        <time>2009-08-23T09:08:16Z</time>
      </trkpt>
      <trkpt lat="50.725085" lon="6.528828">
        <ele>236.140000</ele>
        <time>2009-08-23T09:08:31Z</time>
      </trkpt>
      <trkpt lat="50.724941" lon="6.528904">
        <ele>236.140000</ele>
        <time>2009-08-23T09:08:45Z</time>
      </trkpt>
      <trkpt lat="50.724818" lon="6.529020">
        <ele>236.140000</ele>
        <time>2009-08-23T09:08:59Z</time>
      </trkpt>
      <trkpt lat="50.724688" lon="6.529135">
        <ele>236.140000</ele>
        <time>2009-08-23T09:09:13Z</time>
      </trkpt>
      <trkpt lat="50.724638" lon="6.529171">
        <ele>236.140000</ele>
        <time>2009-08-23T09:09:28Z</time>
      </trkpt>
      <trkpt lat="50.724648" lon="6.529258">
        <ele>235.180000</ele>
        <time>2009-08-23T09:10:27Z</time>
      </trkpt>
      <trkpt lat="50.724582" lon="6.529250">
        <ele>235.660000</ele>
        <time>2009-08-23T09:11:38Z</time>
      </trkpt>
      <trkpt lat="50.724406" lon="6.529280">
        <ele>235.660000</ele>
        <time>2009-08-23T09:11:51Z</time>
      </trkpt>
      <trkpt lat="50.724327" lon="6.529299">
        <ele>235.660000</ele>
        <time>2009-08-23T09:11:57Z</time>
      </trkpt>
      <trkpt lat="50.724281" lon="6.529332">
        <ele>235.180000</ele>
        <time>2009-08-23T09:12:10Z</time>
      </trkpt>
      <trkpt lat="50.724123" lon="6.529407">
        <ele>235.660000</ele>
        <time>2009-08-23T09:12:31Z</time>
      </trkpt>
      <trkpt lat="50.724037" lon="6.529446">
        <ele>235.660000</ele>
        <time>2009-08-23T09:12:48Z</time>
      </trkpt>
      <trkpt lat="50.723967" lon="6.529473">
        <ele>235.660000</ele>
        <time>2009-08-23T09:13:08Z</time>
      </trkpt>
      <trkpt lat="50.723796" lon="6.529547">
        <ele>236.140000</ele>
        <time>2009-08-23T09:13:31Z</time>
      </trkpt>
      <trkpt lat="50.723631" lon="6.529624">
        <ele>235.660000</ele>
        <time>2009-08-23T09:13:47Z</time>
      </trkpt>
      <trkpt lat="50.723472" lon="6.529660">
        <ele>235.660000</ele>
        <time>2009-08-23T09:14:01Z</time>
      </trkpt>
      <trkpt lat="50.723360" lon="6.529744">
        <ele>236.140000</ele>
        <time>2009-08-23T09:14:15Z</time>
      </trkpt>
      <trkpt lat="50.723222" lon="6.529767">
        <ele>235.180000</ele>
        <time>2009-08-23T09:14:29Z</time>
      </trkpt>
      <trkpt lat="50.723077" lon="6.529804">
        <ele>235.660000</ele>
        <time>2009-08-23T09:14:43Z</time>
      </trkpt>
      <trkpt lat="50.722939" lon="6.529892">
        <ele>235.660000</ele>
        <time>2009-08-23T09:14:56Z</time>
      </trkpt>
      <trkpt lat="50.722830" lon="6.529930">
        <ele>235.660000</ele>
        <time>2009-08-23T09:15:08Z</time>
      </trkpt>
      <trkpt lat="50.722726" lon="6.530006">
        <ele>235.660000</ele>
        <time>2009-08-23T09:15:20Z</time>
      </trkpt>
      <trkpt lat="50.722560" lon="6.530078">
        <ele>235.660000</ele>
        <time>2009-08-23T09:15:36Z</time>
      </trkpt>
      <trkpt lat="50.722444" lon="6.530099">
        <ele>235.660000</ele>
        <time>2009-08-23T09:15:50Z</time>
      </trkpt>
      <trkpt lat="50.722284" lon="6.530099">
        <ele>235.180000</ele>
        <time>2009-08-23T09:16:04Z</time>
      </trkpt>
      <trkpt lat="50.722127" lon="6.530128">
        <ele>234.220000</ele>
        <time>2009-08-23T09:16:19Z</time>
      </trkpt>
      <trkpt lat="50.721981" lon="6.530171">
        <ele>234.220000</ele>
        <time>2009-08-23T09:16:36Z</time>
      </trkpt>
      <trkpt lat="50.721979" lon="6.530118">
        <ele>234.220000</ele>
        <time>2009-08-23T09:16:51Z</time>
      </trkpt>
      <trkpt lat="50.721967" lon="6.530025">
        <ele>233.740000</ele>
        <time>2009-08-23T09:16:55Z</time>
      </trkpt>
      <trkpt lat="50.721737" lon="6.529754"/>
      <trkpt lat="50.721629" lon="6.529201"/>
      <trkpt lat="50.721602" lon="6.528733"/>
      <trkpt lat="50.721548" lon="6.528179"/>
      <trkpt lat="50.721548" lon="6.527839"/>
      <trkpt lat="50.722006" lon="6.527413"/>
      <trkpt lat="50.722141" lon="6.527328"/>
      <trkpt lat="50.722949" lon="6.526774"/>
      <trkpt lat="50.724000" lon="6.525880"/>
      <trkpt lat="50.724701" lon="6.525412"/>
      <trkpt lat="50.725186" lon="6.525071"/>
      <trkpt lat="50.725914" lon="6.524348"/>
      <trkpt lat="50.726534" lon="6.523922"/>
      <trkpt lat="50.727261" lon="6.523156"/>
      <trkpt lat="50.727639" lon="6.522645"/>
      <trkpt lat="50.727962" lon="6.522006"/>
      <trkpt lat="50.728420" lon="6.522560"/>
      <trkpt lat="50.728905" lon="6.523241"/>
      <trkpt lat="50.729283" lon="6.523667"/>
      <trkpt lat="50.729633" lon="6.524092"/>
      <trkpt lat="50.730064" lon="6.524390"/>
      <trkpt lat="50.730280" lon="6.524774"/>
      <trkpt lat="50.730738" lon="6.524007"/>
      <trkpt lat="50.731142" lon="6.523198"/>
      <trkpt lat="50.731519" lon="6.522517"/>
      <trkpt lat="50.731573" lon="6.523156"/>
      <trkpt lat="50.731573" lon="6.523879"/>
      <trkpt lat="50.731546" lon="6.524561"/>
      <trkpt lat="50.731681" lon="6.525199"/>
      <trkpt lat="50.731681" lon="6.525284"/>
    </trkseg>
  </trk>

</gpx>
